首页
METAR-TAF:

METAR-TAF

机场 :

摩根敦市立機場

摩根敦, 西維吉尼亞州, 美国

纬度: 39-38-58N, 经度: 079-55-16W, 海拔: 380米

当前天气观测

该预报发布于59分钟前的15:53 UTC
风速8节,风向西转西南,有时为17节阵风,在南转西南西之间变化
温度 27°C
湿度 54%
气压 1022 hPa
能見度: 16.1公里
天空无云

METAR: KMGW 261553Z 24008G17KT 210V270 10SM CLR 27/17 A3017 RMK AO2 SLP206 T02670167

时间: 12:52 (16:52 UTC)

预报

该预报发布于5小时和29分钟前的11:23 UTC
预报有效从26日的 12点(UTC)到 27日的 12点(UTC)
风速4节,风向多变
能見度: 10公里
天空无云
从 26日的 1800点(UTC)
风速10节,风向西南
能見度: 10公里
散云层高于5000英尺
从 27日的 0100点(UTC)
风速5节,风向多变
能見度: 10公里
散云层高于5000英尺

TAF: KMGW 261123Z 2612/2712 VRB04KT P6SM SKC FM261800 23010KT P6SM SCT050 FM270100 VRB05KT P6SM SCT050

超过4000个机场的气象观测和天气预报(METAR&TAF报告)。

可查询的气象台以黄色和红色小点在地图上表示。

将鼠标移到小点上方,可查看气象台名称。

然后点击查看天气观测和预报。

如需切换地图:点击带黑十字的绿色按钮放大地图;点击带横线的绿色按钮缩小地图;或者点击绿色箭头查看邻近地区的地图。


METAR-TAF: